Time;durP1;ratioP1;P1;durP2;ratioP2;P2;SDS_P1;SDS_P2;PMS_P1;PMS_P2;Temp;Humidity;BMP_temperature;BMP_pressure;BME280_temperature;BME280_humidity;BME280_pressure;Samples;Min_cycle;Max_cycle;Signal;HPM_P1;HPM_P2
2023/03/03 00:01:25;;;;;;;61.97;26.57;;;;;;;;;;5114996;28;20477;-71
2023/03/03 00:03:52;;;;;;;72.20;30.20;;;;;;;;;;5114746;28;20458;-71
2023/03/03 00:06:20;;;;;;;60.17;27.80;;;;;;;;;;5114716;28;20546;-71
2023/03/03 00:08:48;;;;;;;58.00;25.87;;;;;;;;;;5114936;28;20450;-71
2023/03/03 00:11:15;;;;;;;58.23;26.23;;;;;;;;;;5114748;28;20559;-71
2023/03/03 00:13:45;;;;;;;52.83;27.00;;;;;;;;;;5114704;28;20519;-71
2023/03/03 00:16:18;;;;;;;48.60;25.10;;;;;;;;;;5114924;28;20826;-71
2023/03/03 00:18:46;;;;;;;63.80;26.93;;;;;;;;;;5114842;28;21022;-71
2023/03/03 00:21:24;;;;;;;67.97;27.33;;;;;;;;;;5114540;28;20465;-71
2023/03/03 00:23:51;;;;;;;68.30;27.30;;;;;;;;;;5114132;28;20481;-71
2023/03/03 00:26:21;;;;;;;64.37;26.60;;;;;;;;;;5114377;27;20525;-71
2023/03/03 00:28:49;;;;;;;61.90;27.50;;;;;;;;;;5114395;28;20446;-71
2023/03/03 00:31:20;;;;;;;81.80;28.33;;;;;;;;;;5114277;28;20469;-71
2023/03/03 00:33:50;;;;;;;57.67;24.90;;;;;;;;;;5114286;28;20446;-71
2023/03/03 00:36:27;;;;;;;72.87;29.23;;;;;;;;;;5114314;28;20456;-71
2023/03/03 00:38:55;;;;;;;61.03;26.50;;;;;;;;;;5114292;28;20969;-71
2023/03/03 00:41:24;;;;;;;56.43;24.57;;;;;;;;;;5113579;28;20492;-71
2023/03/03 00:43:51;;;;;;;52.87;26.33;;;;;;;;;;5114004;28;20445;-71
2023/03/03 00:46:20;;;;;;;60.77;25.73;;;;;;;;;;5113357;28;20493;-71
2023/03/03 00:48:49;;;;;;;74.73;29.50;;;;;;;;;;5114031;28;20457;-71
2023/03/03 00:51:27;;;;;;;73.07;28.03;;;;;;;;;;5113855;28;20479;-70
2023/03/03 00:53:54;;;;;;;58.10;25.70;;;;;;;;;;5113854;28;20456;-71
2023/03/03 00:56:22;;;;;;;79.30;30.80;;;;;;;;;;5113871;28;20450;-70
2023/03/03 00:58:49;;;;;;;60.73;25.20;;;;;;;;;;5113622;28;20454;-71
2023/03/03 01:01:16;;;;;;;67.43;26.37;;;;;;;;;;5113735;28;20993;-71
2023/03/03 01:03:44;;;;;;;63.90;27.33;;;;;;;;;;5113306;28;20445;-71
2023/03/03 01:06:13;;;;;;;70.97;25.77;;;;;;;;;;5113772;28;20492;-71
2023/03/03 01:08:40;;;;;;;68.60;27.30;;;;;;;;;;5113859;28;20460;-71
2023/03/03 01:11:09;;;;;;;58.43;27.30;;;;;;;;;;5113558;28;20465;-71
2023/03/03 01:13:38;;;;;;;70.87;26.37;;;;;;;;;;5113646;28;20445;-71
2023/03/03 01:16:05;;;;;;;72.17;27.33;;;;;;;;;;5113567;28;20771;-71
2023/03/03 01:18:32;;;;;;;75.77;31.73;;;;;;;;;;5113697;28;20961;-71
2023/03/03 01:21:01;;;;;;;72.87;34.50;;;;;;;;;;5113450;28;20469;-71
2023/03/03 01:23:29;;;;;;;86.37;33.07;;;;;;;;;;5113445;27;20462;-71
2023/03/03 01:25:56;;;;;;;72.73;31.97;;;;;;;;;;5113459;28;20449;-71
2023/03/03 01:28:23;;;;;;;58.60;25.97;;;;;;;;;;5113397;28;20453;-71
2023/03/03 01:30:50;;;;;;;66.30;28.80;;;;;;;;;;5113445;28;20469;-71
2023/03/03 01:33:17;;;;;;;67.60;25.97;;;;;;;;;;5112957;28;20457;-71
2023/03/03 01:35:45;;;;;;;62.43;26.90;;;;;;;;;;5113250;28;20455;-71
2023/03/03 01:38:13;;;;;;;56.30;27.20;;;;;;;;;;5112869;28;20442;-70
2023/03/03 01:40:41;;;;;;;78.37;32.10;;;;;;;;;;5113185;28;20482;-70
2023/03/03 01:43:08;;;;;;;60.70;28.50;;;;;;;;;;5112623;28;20452;-71
2023/03/03 01:45:43;;;;;;;69.13;27.07;;;;;;;;;;5113102;28;20454;-71
2023/03/03 01:48:14;;;;;;;64.70;28.50;;;;;;;;;;5113155;28;21024;-71
2023/03/03 01:50:46;;;;;;;66.80;26.93;;;;;;;;;;5113230;28;20469;-71
2023/03/03 01:53:18;;;;;;;59.50;28.47;;;;;;;;;;5113241;28;20446;-70
2023/03/03 01:55:45;;;;;;;73.87;29.00;;;;;;;;;;5113032;28;20800;-71
2023/03/03 01:58:15;;;;;;;72.80;27.47;;;;;;;;;;5116261;28;20441;-70
2023/03/03 02:00:44;;;;;;;52.80;23.67;;;;;;;;;;5117410;28;20469;-70
2023/03/03 02:03:11;;;;;;;64.53;28.40;;;;;;;;;;5117241;28;20449;-71
2023/03/03 02:05:40;;;;;;;62.83;28.00;;;;;;;;;;5117033;28;20453;-71
2023/03/03 02:08:08;;;;;;;70.93;27.77;;;;;;;;;;5116633;28;20489;-71
2023/03/03 02:10:37;;;;;;;66.23;27.40;;;;;;;;;;5117218;27;20847;-71
2023/03/03 02:13:04;;;;;;;65.60;27.77;;;;;;;;;;5116480;28;20461;-71
2023/03/03 02:15:34;;;;;;;64.10;25.97;;;;;;;;;;5116938;28;20456;-71
2023/03/03 02:18:04;;;;;;;78.43;27.83;;;;;;;;;;5117084;28;20449;-71
2023/03/03 02:20:35;;;;;;;78.33;32.33;;;;;;;;;;5117011;28;20461;-71
2023/03/03 02:23:07;;;;;;;67.07;32.23;;;;;;;;;;5117005;28;20460;-71
2023/03/03 02:25:37;;;;;;;64.17;29.43;;;;;;;;;;5116832;28;20463;-71
2023/03/03 02:28:06;;;;;;;77.27;31.63;;;;;;;;;;5116935;27;20485;-71
2023/03/03 02:30:37;;;;;;;86.33;30.80;;;;;;;;;;5116777;28;20477;-71
2023/03/03 02:33:05;;;;;;;70.90;30.60;;;;;;;;;;5116713;28;20456;-71
2023/03/03 02:35:33;;;;;;;80.53;30.80;;;;;;;;;;5116476;28;20452;-71
2023/03/03 02:38:05;;;;;;;66.13;28.87;;;;;;;;;;5116693;28;20444;-71
2023/03/03 02:40:34;;;;;;;80.77;31.67;;;;;;;;;;5116354;28;20485;-71
2023/03/03 02:46:06;;;;;;;67.77;27.80;;;;;;;;;;5116499;28;20515;-71
2023/03/03 02:48:33;;;;;;;79.20;28.90;;;;;;;;;;5115976;28;20489;-71
2023/03/03 02:51:00;;;;;;;88.90;31.60;;;;;;;;;;5116395;28;20469;-71
2023/03/03 02:53:27;;;;;;;67.73;27.43;;;;;;;;;;5116311;28;20452;-71
2023/03/03 02:55:54;;;;;;;66.37;27.87;;;;;;;;;;5116303;27;20977;-71
2023/03/03 02:58:22;;;;;;;76.50;33.27;;;;;;;;;;5116443;28;20452;-71
2023/03/03 03:00:49;;;;;;;68.87;26.67;;;;;;;;;;5116282;28;20473;-71
2023/03/03 03:03:17;;;;;;;75.50;29.23;;;;;;;;;;5116094;28;20522;-71
2023/03/03 03:05:44;;;;;;;72.83;27.60;;;;;;;;;;5116049;28;20480;-71
2023/03/03 03:08:11;;;;;;;69.90;30.33;;;;;;;;;;5115694;28;20485;-71
2023/03/03 03:10:38;;;;;;;59.17;27.23;;;;;;;;;;5115729;28;20970;-71
2023/03/03 03:13:05;;;;;;;65.87;25.53;;;;;;;;;;5115962;27;20476;-71
2023/03/03 03:15:33;;;;;;;62.40;27.20;;;;;;;;;;5115842;28;20445;-71
2023/03/03 03:18:00;;;;;;;67.93;27.97;;;;;;;;;;5115779;28;20452;-71
2023/03/03 03:20:28;;;;;;;64.33;28.93;;;;;;;;;;5115557;28;20526;-71
2023/03/03 03:22:56;;;;;;;64.23;27.73;;;;;;;;;;5115920;28;20442;-71
2023/03/03 03:25:23;;;;;;;61.77;29.33;;;;;;;;;;5115446;28;20454;-71
2023/03/03 03:27:50;;;;;;;67.90;28.07;;;;;;;;;;5115701;27;20489;-70
2023/03/03 03:30:19;;;;;;;74.80;30.70;;;;;;;;;;5115123;28;20503;-71
2023/03/03 03:32:46;;;;;;;72.73;30.63;;;;;;;;;;5115661;28;20454;-71
2023/03/03 03:35:14;;;;;;;70.30;27.93;;;;;;;;;;5115371;28;20445;-71
2023/03/03 03:37:42;;;;;;;71.10;30.10;;;;;;;;;;5115531;28;20449;-71
2023/03/03 03:40:11;;;;;;;65.10;28.77;;;;;;;;;;5115303;27;20990;-71
2023/03/03 03:42:39;;;;;;;65.13;28.87;;;;;;;;;;5114917;28;20446;-71
2023/03/03 03:45:07;;;;;;;68.23;28.90;;;;;;;;;;5115069;28;20550;-71
2023/03/03 03:47:34;;;;;;;76.00;31.17;;;;;;;;;;5115400;28;20847;-71
2023/03/03 03:50:01;;;;;;;91.53;32.47;;;;;;;;;;5115223;27;20465;-71
2023/03/03 03:52:28;;;;;;;79.67;32.70;;;;;;;;;;5115300;28;20457;-71
2023/03/03 03:54:56;;;;;;;76.33;30.87;;;;;;;;;;5114909;28;20457;-71
2023/03/03 03:57:24;;;;;;;80.33;30.67;;;;;;;;;;5115058;28;20437;-71
2023/03/03 03:59:51;;;;;;;69.30;29.50;;;;;;;;;;5114628;27;20473;-71
2023/03/03 04:02:18;;;;;;;75.90;30.30;;;;;;;;;;5115152;28;20450;-71
2023/03/03 04:04:45;;;;;;;77.30;31.70;;;;;;;;;;5114511;28;20442;-71
2023/03/03 04:07:12;;;;;;;80.60;32.50;;;;;;;;;;5114857;28;20485;-71
2023/03/03 04:09:39;;;;;;;79.53;29.40;;;;;;;;;;5114875;28;20450;-71
2023/03/03 04:12:08;;;;;;;77.83;29.40;;;;;;;;;;5114698;28;20816;-71
2023/03/03 04:14:35;;;;;;;80.60;29.10;;;;;;;;;;5114724;28;20460;-70
2023/03/03 04:17:02;;;;;;;79.23;32.90;;;;;;;;;;5114732;27;20456;-71
2023/03/03 04:19:29;;;;;;;65.63;29.97;;;;;;;;;;5114768;28;20460;-71
2023/03/03 04:21:56;;;;;;;72.23;28.13;;;;;;;;;;5113552;28;20808;-71
2023/03/03 04:24:23;;;;;;;54.90;25.97;;;;;;;;;;5114384;28;20476;-71
2023/03/03 04:26:50;;;;;;;62.13;27.87;;;;;;;;;;5114518;28;20458;-71
2023/03/03 04:29:19;;;;;;;53.10;24.10;;;;;;;;;;5114550;28;20454;-71
2023/03/03 04:31:46;;;;;;;65.60;28.80;;;;;;;;;;5114430;28;20845;-71
2023/03/03 04:34:13;;;;;;;72.97;30.20;;;;;;;;;;5113706;28;20449;-71
2023/03/03 04:36:40;;;;;;;67.57;28.37;;;;;;;;;;5114485;28;20451;-71
2023/03/03 04:39:07;;;;;;;69.70;29.97;;;;;;;;;;5113780;27;20461;-71
2023/03/03 04:41:34;;;;;;;68.30;31.37;;;;;;;;;;5113530;28;20849;-71
2023/03/03 04:44:01;;;;;;;70.87;27.70;;;;;;;;;;5113971;28;20445;-71
2023/03/03 04:46:30;;;;;;;65.33;27.47;;;;;;;;;;5114053;28;20449;-71
2023/03/03 04:48:57;;;;;;;65.83;29.60;;;;;;;;;;5114064;28;20863;-71
2023/03/03 04:51:24;;;;;;;53.97;26.27;;;;;;;;;;5114049;28;20469;-71
2023/03/03 04:53:51;;;;;;;63.83;27.50;;;;;;;;;;5113781;27;20457;-71
2023/03/03 04:56:18;;;;;;;55.50;25.53;;;;;;;;;;5113978;28;20937;-71
2023/03/03 04:58:45;;;;;;;66.13;31.37;;;;;;;;;;5113986;28;20450;-71
2023/03/03 05:01:13;;;;;;;59.23;26.33;;;;;;;;;;5113700;28;20481;-71
2023/03/03 05:03:42;;;;;;;56.03;26.87;;;;;;;;;;5113774;28;20445;-71
2023/03/03 05:06:09;;;;;;;60.50;25.77;;;;;;;;;;5113731;28;20450;-71
2023/03/03 05:08:36;;;;;;;61.43;28.27;;;;;;;;;;5113192;28;20488;-71
2023/03/03 05:11:03;;;;;;;60.17;24.40;;;;;;;;;;5113745;28;20462;-71
2023/03/03 05:13:30;;;;;;;51.90;27.43;;;;;;;;;;5113052;28;20460;-71
2023/03/03 05:15:58;;;;;;;78.83;33.87;;;;;;;;;;5113677;28;20506;-71
2023/03/03 05:18:25;;;;;;;57.70;29.07;;;;;;;;;;5113772;28;20449;-71
2023/03/03 05:20:54;;;;;;;57.40;27.43;;;;;;;;;;5113613;28;20484;-71
2023/03/03 05:23:21;;;;;;;61.87;27.00;;;;;;;;;;5113467;28;20453;-71
2023/03/03 05:25:49;;;;;;;49.40;26.90;;;;;;;;;;5113435;28;20953;-71
2023/03/03 05:28:16;;;;;;;62.80;29.80;;;;;;;;;;5113345;28;20512;-71
2023/03/03 05:30:43;;;;;;;66.80;32.60;;;;;;;;;;5113386;28;20480;-71
2023/03/03 05:33:13;;;;;;;58.80;25.77;;;;;;;;;;5113007;27;20452;-71
2023/03/03 05:35:40;;;;;;;65.27;29.67;;;;;;;;;;5113184;28;20445;-71
2023/03/03 05:38:08;;;;;;;66.77;28.10;;;;;;;;;;5113272;28;20446;-70
2023/03/03 05:40:36;;;;;;;57.00;27.23;;;;;;;;;;5113276;28;20477;-70
2023/03/03 05:43:04;;;;;;;55.67;28.27;;;;;;;;;;5092066;28;20450;-71
2023/03/03 05:45:31;;;;;;;67.07;30.90;;;;;;;;;;5092888;28;20465;-71
2023/03/03 05:47:58;;;;;;;56.57;26.30;;;;;;;;;;5092644;28;20851;-71
2023/03/03 05:50:25;;;;;;;54.40;24.23;;;;;;;;;;5092695;28;20482;-71
2023/03/03 05:52:53;;;;;;;61.77;30.40;;;;;;;;;;5092919;28;20447;-71
2023/03/03 05:55:21;;;;;;;58.43;26.77;;;;;;;;;;5092475;28;20455;-71
2023/03/03 05:57:48;;;;;;;64.50;27.90;;;;;;;;;;5092773;28;20457;-71
2023/03/03 06:00:16;;;;;;;71.50;27.30;;;;;;;;;;5092791;28;20478;-71
2023/03/03 06:02:44;;;;;;;68.90;28.00;;;;;;;;;;5092840;28;20447;-71
2023/03/03 06:05:11;;;;;;;62.20;29.10;;;;;;;;;;5092469;28;20454;-71
2023/03/03 06:07:38;;;;;;;74.17;30.80;;;;;;;;;;5092777;28;20478;-71
2023/03/03 06:10:06;;;;;;;69.17;32.00;;;;;;;;;;5092585;28;20470;-71
2023/03/03 06:12:34;;;;;;;59.23;29.50;;;;;;;;;;5092634;28;20454;-71
2023/03/03 06:15:01;;;;;;;57.97;28.03;;;;;;;;;;5092236;28;20455;-70
2023/03/03 06:17:29;;;;;;;64.80;29.10;;;;;;;;;;5092666;28;20451;-71
2023/03/03 06:19:57;;;;;;;72.67;29.67;;;;;;;;;;5092233;28;20486;-71
2023/03/03 06:22:24;;;;;;;57.23;25.00;;;;;;;;;;5092516;28;20458;-71
2023/03/03 06:24:52;;;;;;;70.20;27.33;;;;;;;;;;5091986;28;20943;-71
2023/03/03 06:27:19;;;;;;;59.43;27.80;;;;;;;;;;5088432;28;20508;-71
2023/03/03 06:29:47;;;;;;;57.07;26.77;;;;;;;;;;5083662;28;20495;-71
2023/03/03 06:32:14;;;;;;;67.60;30.70;;;;;;;;;;5089984;28;20455;-71
2023/03/03 06:34:42;;;;;;;56.33;26.70;;;;;;;;;;5090965;28;20454;-71
2023/03/03 06:37:09;;;;;;;60.03;27.43;;;;;;;;;;5090410;28;20454;-71
2023/03/03 06:39:36;;;;;;;63.10;29.10;;;;;;;;;;5090431;28;20462;-71
2023/03/03 06:42:03;;;;;;;64.97;28.37;;;;;;;;;;5090209;28;20954;-71
2023/03/03 06:44:30;;;;;;;53.40;27.00;;;;;;;;;;5092500;28;20446;-71
2023/03/03 06:46:58;;;;;;;62.67;26.73;;;;;;;;;;5094437;28;20811;-71
2023/03/03 06:49:26;;;;;;;60.67;27.00;;;;;;;;;;5094471;28;20489;-71
2023/03/03 06:51:53;;;;;;;61.60;28.37;;;;;;;;;;5094794;28;20450;-71
2023/03/03 06:54:21;;;;;;;52.53;27.90;;;;;;;;;;5093646;28;20461;-71
2023/03/03 06:56:50;;;;;;;59.43;26.57;;;;;;;;;;5094483;28;20473;-71
2023/03/03 06:59:18;;;;;;;54.50;27.53;;;;;;;;;;5093810;28;20474;-71
2023/03/03 07:01:46;;;;;;;54.00;27.23;;;;;;;;;;5094122;28;20979;-71
2023/03/03 07:04:17;;;;;;;61.23;28.57;;;;;;;;;;5094119;28;20446;-71
2023/03/03 07:06:44;;;;;;;61.13;28.37;;;;;;;;;;5094387;28;20939;-71
2023/03/03 07:09:15;;;;;;;58.77;26.03;;;;;;;;;;5093892;28;20521;-71
2023/03/03 07:11:42;;;;;;;49.30;25.73;;;;;;;;;;5094097;28;20487;-71
2023/03/03 07:14:14;;;;;;;51.00;26.90;;;;;;;;;;5093961;28;20825;-71
2023/03/03 07:16:41;;;;;;;52.43;26.87;;;;;;;;;;5093753;28;20458;-71
2023/03/03 07:19:14;;;;;;;57.33;28.20;;;;;;;;;;5091186;28;20447;-71
2023/03/03 07:21:43;;;;;;;45.53;24.17;;;;;;;;;;5093614;28;20481;-71
2023/03/03 07:24:17;;;;;;;54.43;29.13;;;;;;;;;;5093559;28;20461;-71
2023/03/03 07:26:44;;;;;;;64.93;28.50;;;;;;;;;;5093881;28;20936;-71
2023/03/03 07:29:17;;;;;;;62.23;30.90;;;;;;;;;;5093098;28;20490;-71
2023/03/03 07:31:46;;;;;;;48.80;26.80;;;;;;;;;;5094058;28;20479;-71
2023/03/03 07:34:20;;;;;;;51.90;27.00;;;;;;;;;;5092784;28;20802;-71
2023/03/03 07:36:49;;;;;;;53.40;25.70;;;;;;;;;;5093699;28;20481;-71
2023/03/03 07:39:25;;;;;;;59.90;28.47;;;;;;;;;;5092782;28;20874;-70
2023/03/03 07:41:52;;;;;;;53.13;26.60;;;;;;;;;;5093133;28;20477;-71
2023/03/03 07:44:21;;;;;;;57.37;27.80;;;;;;;;;;5093470;28;20516;-71
2023/03/03 07:46:49;;;;;;;58.90;25.53;;;;;;;;;;5093363;28;20786;-71
2023/03/03 07:49:23;;;;;;;65.20;30.40;;;;;;;;;;5093334;28;20536;-71
2023/03/03 07:51:56;;;;;;;47.37;25.73;;;;;;;;;;5093613;28;20454;-71
2023/03/03 07:54:30;;;;;;;55.33;25.70;;;;;;;;;;5093264;28;20542;-71
2023/03/03 07:56:58;;;;;;;59.60;26.90;;;;;;;;;;5093184;28;20935;-71
2023/03/03 07:59:26;;;;;;;56.33;28.17;;;;;;;;;;5093282;28;20447;-71
2023/03/03 08:01:55;;;;;;;63.10;28.00;;;;;;;;;;5093403;28;20450;-71
2023/03/03 08:04:24;;;;;;;53.70;28.03;;;;;;;;;;5092494;28;21015;-72
2023/03/03 08:06:54;;;;;;;62.50;30.13;;;;;;;;;;5093242;28;20450;-71
2023/03/03 08:09:38;;;;;;;54.60;26.63;;;;;;;;;;5093085;28;20491;-71
2023/03/03 08:12:18;;;;;;;55.60;25.60;;;;;;;;;;5092874;28;20451;-71
2023/03/03 08:14:45;;;;;;;50.03;26.87;;;;;;;;;;5093148;28;20454;-71
2023/03/03 08:17:15;;;;;;;56.23;26.47;;;;;;;;;;5092814;28;20458;-71
2023/03/03 08:19:42;;;;;;;55.30;28.43;;;;;;;;;;5092882;28;20945;-71
2023/03/03 08:22:13;;;;;;;52.73;28.40;;;;;;;;;;5092769;28;20462;-71
2023/03/03 08:24:40;;;;;;;50.70;25.87;;;;;;;;;;5093188;28;20817;-71
2023/03/03 08:27:07;;;;;;;51.77;27.53;;;;;;;;;;5092495;28;20455;-72
2023/03/03 08:29:35;;;;;;;59.60;26.23;;;;;;;;;;5092821;28;20486;-71
2023/03/03 08:32:02;;;;;;;63.27;31.03;;;;;;;;;;5092582;28;20459;-71
2023/03/03 08:34:29;;;;;;;55.97;28.70;;;;;;;;;;5092481;28;20455;-71
2023/03/03 08:36:57;;;;;;;55.33;25.70;;;;;;;;;;5092996;28;20454;-71
2023/03/03 08:39:25;;;;;;;52.17;26.70;;;;;;;;;;5093866;28;20486;-71
2023/03/03 08:41:52;;;;;;;70.47;32.60;;;;;;;;;;5093362;28;20466;-72
2023/03/03 08:44:20;;;;;;;55.20;27.57;;;;;;;;;;5093668;28;20447;-71
2023/03/03 08:46:47;;;;;;;48.17;24.90;;;;;;;;;;5093767;28;20451;-71
2023/03/03 08:49:14;;;;;;;61.37;28.77;;;;;;;;;;5093481;28;20488;-71
2023/03/03 08:51:41;;;;;;;53.77;28.60;;;;;;;;;;5093696;28;20474;-71
2023/03/03 08:54:08;;;;;;;60.80;27.77;;;;;;;;;;5093401;28;20462;-71
2023/03/03 08:56:37;;;;;;;54.23;29.37;;;;;;;;;;5093689;28;20454;-71
2023/03/03 08:59:04;;;;;;;52.83;29.17;;;;;;;;;;5093567;28;20447;-71
2023/03/03 09:01:31;;;;;;;55.30;28.10;;;;;;;;;;5093638;28;20829;-71
2023/03/03 09:03:58;;;;;;;58.10;29.60;;;;;;;;;;5093292;28;20458;-71
2023/03/03 09:06:25;;;;;;;52.90;26.50;;;;;;;;;;5092959;28;20462;-71
2023/03/03 09:08:53;;;;;;;60.10;30.00;;;;;;;;;;5093430;28;20490;-71
2023/03/03 09:11:22;;;;;;;55.33;30.87;;;;;;;;;;5093246;28;20479;-71
2023/03/03 09:13:52;;;;;;;60.47;30.70;;;;;;;;;;5093190;28;20458;-71
2023/03/03 09:16:20;;;;;;;61.27;30.60;;;;;;;;;;5093166;28;20821;-71
2023/03/03 09:18:47;;;;;;;57.97;28.40;;;;;;;;;;5093377;28;20534;-71
2023/03/03 09:21:21;;;;;;;57.57;27.47;;;;;;;;;;5093218;28;20466;-71
2023/03/03 09:23:50;;;;;;;57.93;29.13;;;;;;;;;;5093067;28;20454;-72
2023/03/03 09:26:26;;;;;;;47.63;27.80;;;;;;;;;;5093155;28;20849;-71
2023/03/03 09:28:55;;;;;;;57.30;28.97;;;;;;;;;;5093173;28;20493;-71
2023/03/03 09:31:25;;;;;;;62.47;30.53;;;;;;;;;;5092464;28;20477;-71
2023/03/03 09:33:56;;;;;;;53.20;29.50;;;;;;;;;;5092913;28;20830;-72
2023/03/03 09:36:25;;;;;;;61.67;28.97;;;;;;;;;;5093139;28;20451;-71
2023/03/03 09:38:52;;;;;;;54.83;29.23;;;;;;;;;;5093140;28;20525;-71
2023/03/03 09:41:31;;;;;;;60.43;28.07;;;;;;;;;;5092410;28;20498;-71
2023/03/03 09:44:10;;;;;;;49.70;27.43;;;;;;;;;;5092997;28;20450;-71
2023/03/03 09:46:41;;;;;;;54.03;28.23;;;;;;;;;;5093069;28;20489;-71
2023/03/03 09:49:12;;;;;;;45.90;25.93;;;;;;;;;;5092800;28;20486;-71
2023/03/03 09:51:45;;;;;;;46.87;27.97;;;;;;;;;;5093004;28;20470;-71
2023/03/03 09:54:24;;;;;;;61.07;31.43;;;;;;;;;;5092652;28;20450;-71
2023/03/03 09:56:55;;;;;;;54.90;29.50;;;;;;;;;;5092693;28;20446;-71
2023/03/03 09:59:28;;;;;;;48.90;28.20;;;;;;;;;;5092875;28;20443;-71
2023/03/03 10:02:07;;;;;;;47.80;28.43;;;;;;;;;;5092836;28;20454;-72
2023/03/03 10:04:43;;;;;;;57.90;30.07;;;;;;;;;;5092581;28;20462;-72
2023/03/03 10:07:16;;;;;;;54.10;29.47;;;;;;;;;;5092666;28;20451;-72
2023/03/03 10:09:49;;;;;;;51.60;28.83;;;;;;;;;;5092696;28;20486;-71
2023/03/03 10:12:22;;;;;;;49.13;28.30;;;;;;;;;;5092729;28;20457;-71
2023/03/03 10:15:04;;;;;;;48.27;30.90;;;;;;;;;;5092563;28;21011;-72
2023/03/03 10:17:39;;;;;;;52.67;30.07;;;;;;;;;;5089797;28;20458;-72
2023/03/03 10:20:10;;;;;;;49.63;28.80;;;;;;;;;;5096556;28;20458;-71
2023/03/03 10:22:43;;;;;;;59.10;30.53;;;;;;;;;;5096645;28;20446;-71
2023/03/03 10:25:18;;;;;;;54.07;29.57;;;;;;;;;;5096357;28;20442;-71
2023/03/03 10:27:51;;;;;;;57.63;32.60;;;;;;;;;;5096613;28;20453;-71
2023/03/03 10:30:22;;;;;;;62.63;32.93;;;;;;;;;;5096226;28;20486;-72
2023/03/03 10:32:56;;;;;;;54.03;30.80;;;;;;;;;;5096731;28;20447;-71
2023/03/03 10:35:42;;;;;;;53.33;30.03;;;;;;;;;;5096143;28;20441;-71
2023/03/03 10:38:24;;;;;;;48.50;28.23;;;;;;;;;;5096455;28;20950;-71
2023/03/03 10:40:53;;;;;;;51.00;29.00;;;;;;;;;;5093607;28;20478;-71
2023/03/03 10:43:32;;;;;;;57.63;30.43;;;;;;;;;;5095973;28;20936;-71
2023/03/03 10:46:18;;;;;;;54.13;28.23;;;;;;;;;;5096187;28;20447;-71
2023/03/03 10:49:03;;;;;;;53.93;30.77;;;;;;;;;;5083312;28;20474;-72
2023/03/03 10:51:34;;;;;;;60.37;30.60;;;;;;;;;;5096032;28;20474;-71
2023/03/03 10:54:10;;;;;;;55.23;31.87;;;;;;;;;;5095822;28;20463;-71
2023/03/03 10:56:43;;;;;;;51.53;29.20;;;;;;;;;;5096100;28;20814;-71
2023/03/03 10:59:16;;;;;;;55.60;30.00;;;;;;;;;;5095906;28;20453;-71
2023/03/03 11:01:47;;;;;;;53.30;30.60;;;;;;;;;;5095897;28;21018;-71
2023/03/03 11:04:26;;;;;;;51.40;29.07;;;;;;;;;;5095825;28;20943;-71
2023/03/03 11:06:58;;;;;;;54.60;30.67;;;;;;;;;;5095648;28;20951;-71
2023/03/03 11:09:36;;;;;;;55.20;27.80;;;;;;;;;;5095822;28;20837;-71
2023/03/03 11:12:11;;;;;;;55.47;29.67;;;;;;;;;;5095617;28;20490;-71
2023/03/03 11:14:46;;;;;;;47.20;28.60;;;;;;;;;;5095648;28;20453;-71
2023/03/03 11:17:16;;;;;;;54.53;30.23;;;;;;;;;;5095518;28;20461;-71
2023/03/03 11:19:52;;;;;;;52.23;28.37;;;;;;;;;;5095531;28;20454;-71
2023/03/03 11:22:26;;;;;;;51.63;30.37;;;;;;;;;;5095379;28;20455;-71
2023/03/03 11:24:58;;;;;;;46.03;29.83;;;;;;;;;;5095344;28;20453;-71
2023/03/03 11:27:38;;;;;;;51.40;30.60;;;;;;;;;;5095545;28;20447;-72
2023/03/03 11:30:18;;;;;;;47.83;27.80;;;;;;;;;;5094572;28;20485;-71
2023/03/03 11:32:49;;;;;;;46.40;29.60;;;;;;;;;;5095323;28;20453;-71
2023/03/03 11:35:27;;;;;;;52.63;29.30;;;;;;;;;;5095026;28;20450;-71
2023/03/03 11:38:00;;;;;;;56.03;28.80;;;;;;;;;;5095216;28;20958;-71
2023/03/03 11:40:29;;;;;;;53.03;30.40;;;;;;;;;;5095026;28;20482;-71
2023/03/03 11:43:01;;;;;;;51.43;29.73;;;;;;;;;;5094562;28;20959;-71
2023/03/03 11:45:30;;;;;;;50.17;29.80;;;;;;;;;;5094806;28;20443;-72
2023/03/03 11:47:59;;;;;;;44.93;28.57;;;;;;;;;;5094985;28;20446;-71
2023/03/03 11:50:31;;;;;;;51.73;30.87;;;;;;;;;;5094727;28;20482;-71
2023/03/03 11:53:04;;;;;;;50.00;30.60;;;;;;;;;;5094861;28;20450;-71
2023/03/03 11:55:34;;;;;;;46.07;29.47;;;;;;;;;;5094014;28;20819;-72
2023/03/03 11:58:08;;;;;;;44.27;29.50;;;;;;;;;;5094358;28;20456;-71
2023/03/03 12:00:41;;;;;;;51.60;30.63;;;;;;;;;;5094926;28;20466;-71
2023/03/03 12:03:15;;;;;;;44.23;28.40;;;;;;;;;;5095113;28;20789;-71
2023/03/03 12:05:47;;;;;;;53.00;28.87;;;;;;;;;;5094422;28;20939;-72
2023/03/03 12:08:23;;;;;;;42.73;27.77;;;;;;;;;;5094335;28;20455;-71
2023/03/03 12:10:54;;;;;;;43.97;29.30;;;;;;;;;;5095037;28;20490;-71
2023/03/03 12:13:24;;;;;;;42.90;28.10;;;;;;;;;;5094075;28;20454;-72
2023/03/03 12:15:54;;;;;;;38.53;26.80;;;;;;;;;;5093788;28;20973;-72
2023/03/03 12:18:38;;;;;;;43.07;27.57;;;;;;;;;;5094592;28;20455;-72
2023/03/03 12:21:17;;;;;;;47.00;27.47;;;;;;;;;;5094514;28;20471;-74
2023/03/03 12:24:00;;;;;;;49.17;27.90;;;;;;;;;;5094849;28;20435;-71
2023/03/03 12:26:31;;;;;;;43.30;28.60;;;;;;;;;;5094958;28;20494;-72
2023/03/03 12:28:59;;;;;;;53.50;30.40;;;;;;;;;;5093870;28;20446;-72
2023/03/03 12:31:31;;;;;;;46.90;27.10;;;;;;;;;;5094017;28;20562;-72
2023/03/03 12:33:59;;;;;;;45.80;30.13;;;;;;;;;;5094305;28;20458;-72
2023/03/03 12:36:43;;;;;;;50.33;29.20;;;;;;;;;;5094278;28;20461;-72
2023/03/03 12:39:13;;;;;;;52.83;28.40;;;;;;;;;;5092043;28;20503;-72
2023/03/03 12:41:44;;;;;;;46.47;29.87;;;;;;;;;;5091436;28;20847;-73
2023/03/03 12:44:16;;;;;;;45.47;29.47;;;;;;;;;;5091556;28;20467;-72
2023/03/03 12:46:45;;;;;;;46.37;28.10;;;;;;;;;;5092248;28;20822;-72
2023/03/03 12:49:13;;;;;;;60.33;30.83;;;;;;;;;;5081217;28;20471;-72
2023/03/03 12:52:01;;;;;;;45.33;27.40;;;;;;;;;;5072191;28;20487;-72
2023/03/03 12:54:45;;;;;;;58.30;29.33;;;;;;;;;;5071868;28;20452;-73
2023/03/03 12:57:16;;;;;;;53.33;29.40;;;;;;;;;;5071738;28;20455;-72
2023/03/03 12:59:49;;;;;;;48.03;29.27;;;;;;;;;;5071817;28;20455;-72
2023/03/03 13:02:25;;;;;;;53.73;29.43;;;;;;;;;;5071620;28;20670;-72
2023/03/03 13:04:55;;;;;;;47.17;29.10;;;;;;;;;;5071871;28;20458;-73
2023/03/03 13:07:27;;;;;;;59.17;30.90;;;;;;;;;;5071459;28;20452;-72
2023/03/03 13:10:01;;;;;;;54.13;30.80;;;;;;;;;;5071574;28;20495;-72
2023/03/03 13:12:32;;;;;;;55.93;29.13;;;;;;;;;;5072089;28;20452;-72
2023/03/03 13:15:03;;;;;;;58.47;30.40;;;;;;;;;;5072732;28;20967;-72
2023/03/03 13:17:32;;;;;;;56.93;31.33;;;;;;;;;;5073119;28;20458;-71
2023/03/03 13:20:00;;;;;;;49.90;29.00;;;;;;;;;;5071835;28;20478;-73
2023/03/03 13:22:45;;;;;;;50.60;28.50;;;;;;;;;;5072940;28;20452;-72
2023/03/03 13:25:25;;;;;;;55.07;29.20;;;;;;;;;;5072623;28;20460;-72
2023/03/03 13:27:55;;;;;;;47.23;28.70;;;;;;;;;;5072903;28;20455;-72
2023/03/03 13:30:24;;;;;;;49.77;31.13;;;;;;;;;;5072558;28;20509;-71
2023/03/03 13:32:55;;;;;;;53.23;32.17;;;;;;;;;;5073029;28;20491;-72
2023/03/03 13:35:33;;;;;;;51.77;30.20;;;;;;;;;;5072644;28;20452;-71
2023/03/03 13:38:01;;;;;;;55.43;30.27;;;;;;;;;;5072775;28;20459;-72
2023/03/03 13:40:34;;;;;;;47.93;28.90;;;;;;;;;;5072599;28;20483;-71
2023/03/03 13:43:03;;;;;;;50.40;28.50;;;;;;;;;;5072704;28;20460;-72
2023/03/03 13:45:35;;;;;;;50.03;28.93;;;;;;;;;;5072664;28;20462;-71
2023/03/03 13:48:07;;;;;;;53.13;29.47;;;;;;;;;;5072747;28;20464;-72
2023/03/03 13:50:38;;;;;;;56.20;30.33;;;;;;;;;;5072744;28;20492;-72
2023/03/03 13:53:13;;;;;;;58.40;30.90;;;;;;;;;;5072398;28;20456;-72
2023/03/03 13:55:44;;;;;;;52.33;30.27;;;;;;;;;;5072598;28;20832;-72
2023/03/03 13:58:16;;;;;;;56.50;32.60;;;;;;;;;;5073065;28;20991;-72
2023/03/03 14:00:57;;;;;;;54.00;32.20;;;;;;;;;;5072768;28;20872;-72
2023/03/03 14:03:35;;;;;;;53.97;31.00;;;;;;;;;;5072757;28;20793;-72
2023/03/03 14:06:03;;;;;;;54.90;29.73;;;;;;;;;;5072036;28;20447;-72
2023/03/03 14:08:43;;;;;;;53.70;31.10;;;;;;;;;;5072696;28;20451;-72
2023/03/03 14:11:18;;;;;;;52.03;30.10;;;;;;;;;;5072331;28;20574;-72
2023/03/03 14:13:51;;;;;;;49.83;29.17;;;;;;;;;;5072407;28;20970;-72
2023/03/03 14:16:21;;;;;;;57.67;31.67;;;;;;;;;;5072476;28;20460;-71
2023/03/03 14:18:54;;;;;;;52.90;30.47;;;;;;;;;;5072538;28;20852;-71
2023/03/03 14:21:25;;;;;;;51.00;30.80;;;;;;;;;;5072383;28;20460;-72
2023/03/03 14:23:58;;;;;;;59.17;31.40;;;;;;;;;;5072403;28;20959;-72
2023/03/03 14:26:26;;;;;;;54.40;30.93;;;;;;;;;;5072405;28;20476;-71
2023/03/03 14:29:04;;;;;;;52.60;30.77;;;;;;;;;;5072410;28;20458;-72
2023/03/03 14:31:39;;;;;;;52.40;29.50;;;;;;;;;;5072388;28;21015;-71
2023/03/03 14:34:15;;;;;;;59.53;32.77;;;;;;;;;;5072249;28;20483;-72
2023/03/03 14:36:43;;;;;;;54.20;32.97;;;;;;;;;;5072397;28;20460;-71